createdAt,value
2023-05-17T00:00:41.899Z,9.719360
2023-05-17T00:01:41.902Z,9.719295
2023-05-17T00:02:41.913Z,9.719386
2023-05-17T00:03:41.872Z,9.719327
2023-05-17T00:04:41.916Z,9.719313
2023-05-17T00:05:41.968Z,9.719258
2023-05-17T00:06:41.927Z,9.719271
2023-05-17T00:07:41.837Z,9.719279
2023-05-17T00:08:41.804Z,9.719216
2023-05-17T00:09:41.853Z,9.719342
2023-05-17T00:10:41.799Z,9.719208
2023-05-17T00:11:41.793Z,9.719344
2023-05-17T00:12:41.784Z,9.719174
2023-05-17T00:13:41.806Z,9.719296
2023-05-17T00:14:41.769Z,9.719198
2023-05-17T00:15:41.844Z,9.719062
2023-05-17T00:16:41.736Z,9.719144
2023-05-17T00:17:41.817Z,9.719115
2023-05-17T00:18:41.865Z,9.719312
2023-05-17T00:19:41.739Z,9.719231
2023-05-17T00:20:41.720Z,9.719795
2023-05-17T00:21:41.694Z,9.719567
2023-05-17T00:22:41.694Z,9.719442
2023-05-17T00:23:41.677Z,9.719358
2023-05-17T00:24:41.656Z,9.719396
2023-05-17T00:25:41.681Z,9.719342
2023-05-17T00:26:41.649Z,9.719185
2023-05-17T00:27:41.628Z,9.719237
2023-05-17T00:28:41.671Z,9.719398
2023-05-17T00:29:41.622Z,9.719250
2023-05-17T00:30:41.650Z,9.719444
2023-05-17T00:31:42.794Z,9.719141
2023-05-17T00:32:41.700Z,9.719264
2023-05-17T00:33:41.603Z,9.719272
2023-05-17T00:34:41.640Z,9.719178
2023-05-17T00:35:41.555Z,9.719160
2023-05-17T00:36:41.548Z,9.719259
2023-05-17T00:37:41.563Z,9.719293
2023-05-17T00:38:41.535Z,9.719274
2023-05-17T00:39:41.535Z,9.719260
2023-05-17T00:40:41.508Z,9.719300
2023-05-17T00:41:41.501Z,9.719294
2023-05-17T00:42:41.505Z,9.719250
2023-05-17T00:43:41.501Z,9.719299
2023-05-17T00:44:41.503Z,9.719250
2023-05-17T00:45:41.491Z,9.719201
2023-05-17T00:46:41.445Z,9.719239
2023-05-17T00:47:41.491Z,9.719317
2023-05-17T00:48:41.522Z,9.719329
2023-05-17T00:49:41.441Z,9.719254
2023-05-17T00:50:41.428Z,9.719204
2023-05-17T00:51:41.416Z,9.719191
2023-05-17T00:52:41.387Z,9.719249
2023-05-17T00:53:41.383Z,9.719247
2023-05-17T00:54:41.482Z,9.719305
2023-05-17T00:55:41.366Z,9.719295
2023-05-17T00:56:41.395Z,9.719297
2023-05-17T00:57:41.340Z,9.719316
2023-05-17T00:58:41.324Z,9.719337
2023-05-17T00:59:41.339Z,9.719331
2023-05-17T01:00:41.340Z,9.719348
2023-05-17T01:01:41.326Z,9.719327
2023-05-17T01:02:41.430Z,9.719289
2023-05-17T01:03:41.436Z,9.719247
2023-05-17T01:04:41.294Z,9.719227
2023-05-17T01:05:41.264Z,9.719157
2023-05-17T01:06:41.252Z,9.719269
2023-05-17T01:07:41.283Z,9.719248
2023-05-17T01:08:41.237Z,9.719310
2023-05-17T01:09:41.234Z,9.719323
2023-05-17T01:10:41.237Z,9.719318
2023-05-17T01:11:41.234Z,9.719346
2023-05-17T01:12:41.209Z,9.719283
2023-05-17T01:13:41.189Z,9.719242
2023-05-17T01:14:41.190Z,9.719298
2023-05-17T01:15:41.168Z,9.719264
2023-05-17T01:16:41.160Z,9.719318
2023-05-17T01:17:41.272Z,9.719284
2023-05-17T01:18:41.224Z,9.719177
2023-05-17T01:19:41.210Z,9.719310
2023-05-17T01:20:41.137Z,9.719221
2023-05-17T01:21:41.129Z,9.719189
2023-05-17T01:22:41.115Z,9.719215
2023-05-17T01:23:41.108Z,9.719256
2023-05-17T01:24:41.104Z,9.719267
2023-05-17T01:25:41.065Z,9.719281
2023-05-17T01:26:42.058Z,9.719300
2023-05-17T01:27:41.052Z,9.719290
2023-05-17T01:28:41.054Z,9.719283
2023-05-17T01:29:41.045Z,9.719303
2023-05-17T01:30:41.093Z,9.719269
2023-05-17T01:31:41.011Z,9.719275
2023-05-17T01:32:41.066Z,9.719184
2023-05-17T01:33:41.101Z,9.719200
2023-05-17T01:34:41.006Z,9.719378
2023-05-17T01:35:41.045Z,9.719286
2023-05-17T01:36:40.966Z,9.719144
2023-05-17T01:37:40.977Z,9.718672
2023-05-17T01:38:40.938Z,9.719103
2023-05-17T01:39:41.005Z,9.719179
2023-05-17T01:40:40.931Z,9.719140
2023-05-17T01:41:40.930Z,9.719090
2023-05-17T01:42:40.904Z,9.718934
2023-05-17T01:43:40.905Z,9.719110
2023-05-17T01:44:40.894Z,9.719137
2023-05-17T01:45:40.888Z,9.719185
2023-05-17T01:46:40.930Z,9.719005
2023-05-17T01:47:40.929Z,9.718921
2023-05-17T01:48:40.948Z,9.718544
2023-05-17T01:49:40.847Z,9.718975
2023-05-17T01:50:40.857Z,9.719056
2023-05-17T01:51:40.907Z,9.719124
2023-05-17T01:52:40.821Z,9.719172
2023-05-17T01:53:40.817Z,9.719075
2023-05-17T01:54:40.830Z,9.719239
2023-05-17T01:55:40.792Z,9.718983
2023-05-17T01:56:40.769Z,9.719069
2023-05-17T01:57:40.758Z,9.719129
2023-05-17T01:58:40.760Z,9.719252
2023-05-17T01:59:40.751Z,9.719183
2023-05-17T02:00:40.725Z,9.719171
2023-05-17T02:01:40.719Z,9.719126
2023-05-17T02:02:40.746Z,9.719119
2023-05-17T02:03:40.747Z,9.719183
2023-05-17T02:04:40.723Z,9.719175
2023-05-17T02:05:40.682Z,9.719190
2023-05-17T02:06:40.691Z,9.719177
2023-05-17T02:07:40.664Z,9.719104
2023-05-17T02:08:40.659Z,9.719114
2023-05-17T02:09:40.699Z,9.719106
2023-05-17T02:10:40.660Z,9.719160
2023-05-17T02:11:40.638Z,9.718901
2023-05-17T02:12:40.612Z,9.718906
2023-05-17T02:13:40.616Z,9.719089
2023-05-17T02:14:40.601Z,9.719171
2023-05-17T02:15:40.670Z,9.719164
2023-05-17T02:16:40.591Z,9.719159
2023-05-17T02:17:40.722Z,9.719158
2023-05-17T02:18:40.721Z,9.719229
2023-05-17T02:19:40.546Z,9.719300
2023-05-17T02:20:40.558Z,9.719261
2023-05-17T02:21:40.540Z,9.719191
2023-05-17T02:22:40.555Z,9.719198
2023-05-17T02:23:40.625Z,9.719234
2023-05-17T02:24:40.484Z,9.719205
2023-05-17T02:25:40.483Z,9.719172
2023-05-17T02:26:40.487Z,9.719228
2023-05-17T02:27:40.491Z,9.719186
2023-05-17T02:28:40.484Z,9.719173
2023-05-17T02:29:40.445Z,9.719194
2023-05-17T02:30:40.436Z,9.719170
2023-05-17T02:31:40.420Z,9.719164
2023-05-17T02:32:40.489Z,9.719136
2023-05-17T02:33:40.574Z,9.719140
2023-05-17T02:34:40.422Z,9.719149
2023-05-17T02:35:40.477Z,9.719149
2023-05-17T02:36:40.384Z,9.719172
2023-05-17T02:37:40.376Z,9.719201
2023-05-17T02:38:40.370Z,9.719180
2023-05-17T02:39:40.428Z,9.719184
2023-05-17T02:40:40.368Z,9.719156
2023-05-17T02:41:40.429Z,9.719114
2023-05-17T02:42:40.346Z,9.719087
2023-05-17T02:43:40.316Z,9.719091
2023-05-17T02:44:40.308Z,9.719105
2023-05-17T02:45:40.351Z,9.719183
2023-05-17T02:46:40.282Z,9.719241
2023-05-17T02:47:40.338Z,9.719268
2023-05-17T02:48:40.270Z,9.719222
2023-05-17T02:49:40.248Z,9.719183
2023-05-17T02:50:40.268Z,9.719196
2023-05-17T02:51:40.255Z,9.719020
2023-05-17T02:52:40.221Z,9.718811
2023-05-17T02:53:40.216Z,9.718805
2023-05-17T02:54:40.247Z,9.718881
2023-05-17T02:55:40.394Z,9.718588
2023-05-17T02:56:40.197Z,9.718948
2023-05-17T02:57:40.165Z,9.719139
2023-05-17T02:58:40.185Z,9.719091
2023-05-17T02:59:40.142Z,9.719105
2023-05-17T03:00:40.171Z,9.719122
2023-05-17T03:01:40.121Z,9.719099
2023-05-17T03:02:40.263Z,9.719097
2023-05-17T03:03:40.402Z,9.719383
2023-05-17T03:04:40.143Z,9.719173
2023-05-17T03:05:40.099Z,9.719088
2023-05-17T03:06:40.104Z,9.718888
2023-05-17T03:07:40.103Z,9.719077
2023-05-17T03:08:40.071Z,9.719579
2023-05-17T03:09:40.118Z,9.719374
2023-05-17T03:10:40.052Z,9.719006
2023-05-17T03:11:40.221Z,9.718756
2023-05-17T03:12:40.040Z,9.719000
2023-05-17T03:13:40.016Z,9.718926
2023-05-17T03:14:40.037Z,9.719169
2023-05-17T03:15:40.023Z,9.718910
2023-05-17T03:16:40.006Z,9.718786
2023-05-17T03:17:40.091Z,9.718900
2023-05-17T03:18:40.076Z,9.719003
2023-05-17T03:19:40.027Z,9.719005
2023-05-17T03:20:39.998Z,9.719209
2023-05-17T03:21:39.946Z,9.719153
2023-05-17T03:22:39.947Z,9.719151
2023-05-17T03:23:39.923Z,9.719174
2023-05-17T03:24:39.941Z,9.719392
2023-05-17T03:25:39.916Z,9.719112
2023-05-17T03:26:40.007Z,9.719271
2023-05-17T03:27:39.995Z,9.719242
2023-05-17T03:28:39.874Z,9.719264
2023-05-17T03:29:39.876Z,9.719327
2023-05-17T03:30:39.887Z,9.719227
2023-05-17T03:31:39.848Z,9.719223
2023-05-17T03:32:39.866Z,9.719214
2023-05-17T03:33:39.949Z,9.719204
2023-05-17T03:34:39.809Z,9.719220
2023-05-17T03:35:39.805Z,9.719223
2023-05-17T03:36:40.888Z,9.719288
2023-05-17T03:37:39.785Z,9.719310
2023-05-17T03:38:39.774Z,9.719333
2023-05-17T03:39:39.777Z,9.719325
2023-05-17T03:40:39.772Z,9.719183
2023-05-17T03:41:39.749Z,9.719178
2023-05-17T03:42:39.743Z,9.719177
2023-05-17T03:43:39.807Z,9.719190
2023-05-17T03:44:39.713Z,9.719238
2023-05-17T03:45:39.734Z,9.719231
2023-05-17T03:46:39.715Z,9.719175
2023-05-17T03:47:39.791Z,9.719051
2023-05-17T03:48:39.802Z,9.719080
2023-05-17T03:49:39.669Z,9.719044
2023-05-17T03:50:39.662Z,9.719115
2023-05-17T03:51:39.648Z,9.719187
2023-05-17T03:52:39.673Z,9.719039
2023-05-17T03:53:39.629Z,9.719041
2023-05-17T03:54:39.626Z,9.718975
2023-05-17T03:55:39.617Z,9.719138
2023-05-17T03:56:39.614Z,9.719170
2023-05-17T03:57:39.618Z,9.719083
2023-05-17T03:58:39.623Z,9.719049
2023-05-17T03:59:39.657Z,9.718917
2023-05-17T04:00:39.629Z,9.718868
2023-05-17T04:01:39.567Z,9.718990
2023-05-17T04:02:39.579Z,9.718987
2023-05-17T04:03:39.570Z,9.719042
2023-05-17T04:04:39.598Z,9.719046
2023-05-17T04:05:39.530Z,9.719028
2023-05-17T04:06:39.516Z,9.719030
2023-05-17T04:07:39.507Z,9.718990
2023-05-17T04:08:39.493Z,9.718899
2023-05-17T04:09:39.518Z,9.718875
2023-05-17T04:10:39.486Z,9.718944
2023-05-17T04:11:39.486Z,9.718926
2023-05-17T04:12:39.453Z,9.719105
2023-05-17T04:13:39.449Z,9.719048
2023-05-17T04:14:39.430Z,9.718977
2023-05-17T04:15:39.451Z,9.718954
2023-05-17T04:16:39.411Z,9.718997
2023-05-17T04:17:39.453Z,9.718998
2023-05-17T04:18:39.467Z,9.718761
2023-05-17T04:19:39.566Z,9.718796
2023-05-17T04:20:39.374Z,9.719001
2023-05-17T04:21:39.369Z,9.719016
2023-05-17T04:22:39.396Z,9.719131
2023-05-17T04:23:39.334Z,9.719057
2023-05-17T04:24:39.336Z,9.719052
2023-05-17T04:25:39.340Z,9.718930
2023-05-17T04:26:39.395Z,9.718973
2023-05-17T04:27:39.327Z,9.718930
2023-05-17T04:28:39.312Z,9.718940
2023-05-17T04:29:39.280Z,9.719052
2023-05-17T04:30:39.285Z,9.718910
2023-05-17T04:31:39.328Z,9.718965
2023-05-17T04:32:39.334Z,9.719033
2023-05-17T04:33:39.295Z,9.719032
2023-05-17T04:34:39.261Z,9.718873
2023-05-17T04:35:39.240Z,9.719077
2023-05-17T04:36:40.246Z,9.719116
2023-05-17T04:37:39.244Z,9.719017
2023-05-17T04:38:39.251Z,9.718964
2023-05-17T04:39:39.188Z,9.719112
2023-05-17T04:40:39.191Z,9.719073
2023-05-17T04:41:39.298Z,9.719000
2023-05-17T04:42:39.154Z,9.719081
2023-05-17T04:43:39.160Z,9.719038
2023-05-17T04:44:39.136Z,9.719133
2023-05-17T04:45:39.145Z,9.719021
2023-05-17T04:46:39.130Z,9.719151
2023-05-17T04:48:11.162Z,9.719120
2023-05-17T04:48:39.285Z,9.719139
2023-05-17T04:49:39.185Z,9.719054
2023-05-17T04:50:39.091Z,9.718981
2023-05-17T04:51:39.106Z,9.719023
2023-05-17T04:52:39.089Z,9.718956
2023-05-17T04:53:39.071Z,9.718991
2023-05-17T04:54:39.107Z,9.719188
2023-05-17T04:55:39.037Z,9.719059
2023-05-17T04:56:39.016Z,9.719060
2023-05-17T04:57:39.022Z,9.719012
2023-05-17T04:58:40.002Z,9.718992
2023-05-17T04:59:39.031Z,9.718956
2023-05-17T05:00:38.974Z,9.719139
2023-05-17T05:01:38.998Z,9.719037
2023-05-17T05:02:38.992Z,9.718904
2023-05-17T05:03:39.110Z,9.718919
2023-05-17T05:04:39.068Z,9.718943
2023-05-17T05:05:38.929Z,9.718847
2023-05-17T05:06:38.926Z,9.718972
2023-05-17T05:07:38.920Z,9.718808
2023-05-17T05:08:38.986Z,9.718797
2023-05-17T05:09:38.912Z,9.718827
2023-05-17T05:10:38.894Z,9.718938
2023-05-17T05:11:38.930Z,9.718989
2023-05-17T05:12:38.885Z,9.719213
2023-05-17T05:13:38.987Z,9.719231
2023-05-17T05:14:38.862Z,9.719267
2023-05-17T05:15:38.835Z,9.719423
2023-05-17T05:16:38.838Z,9.719319
2023-05-17T05:17:38.905Z,9.719246
2023-05-17T05:18:38.974Z,9.719231
2023-05-17T05:19:39.999Z,9.719155
2023-05-17T05:20:38.807Z,9.719187
2023-05-17T05:21:38.779Z,9.719208
2023-05-17T05:22:38.770Z,9.719178
2023-05-17T05:23:38.767Z,9.719176
2023-05-17T05:24:39.053Z,9.719189
2023-05-17T05:25:38.756Z,9.719215
2023-05-17T05:26:38.765Z,9.719222
2023-05-17T05:27:38.730Z,9.719205
2023-05-17T05:28:38.940Z,9.719212
2023-05-17T05:29:38.713Z,9.719201
2023-05-17T05:30:38.758Z,9.719211
2023-05-17T05:31:38.683Z,9.719282
2023-05-17T05:32:38.800Z,9.719260
2023-05-17T05:33:38.797Z,9.719195
2023-05-17T05:34:38.668Z,9.719233
2023-05-17T05:35:38.671Z,9.719213
2023-05-17T05:36:38.652Z,9.719334
2023-05-17T05:37:38.698Z,9.719253
2023-05-17T05:38:38.626Z,9.719311
2023-05-17T05:39:38.619Z,9.719328
2023-05-17T05:40:38.616Z,9.719267
2023-05-17T05:41:38.593Z,9.719275
2023-05-17T05:42:38.588Z,9.719283
2023-05-17T05:43:38.590Z,9.719234
2023-05-17T05:44:38.580Z,9.719313
2023-05-17T05:45:38.563Z,9.719325
2023-05-17T05:46:38.592Z,9.719319
2023-05-17T05:47:38.674Z,9.719197
2023-05-17T05:48:38.605Z,9.719192
2023-05-17T05:49:38.565Z,9.719356
2023-05-17T05:50:38.549Z,9.719332
2023-05-17T05:51:38.654Z,9.719341
2023-05-17T05:52:38.480Z,9.719281
2023-05-17T05:53:38.482Z,9.719237
2023-05-17T05:54:38.456Z,9.719172
2023-05-17T05:55:38.450Z,9.719275
2023-05-17T05:56:38.470Z,9.719217
2023-05-17T05:57:38.439Z,9.719267
2023-05-17T05:58:38.440Z,9.719325
2023-05-17T05:59:38.462Z,9.719255
2023-05-17T06:00:38.507Z,9.719256
2023-05-17T06:01:38.409Z,9.719252
2023-05-17T06:02:38.434Z,9.719082
2023-05-17T06:03:38.403Z,9.719133
2023-05-17T06:04:45.166Z,9.719305
2023-05-17T06:05:40.536Z,9.719295
2023-05-17T06:06:38.588Z,9.719303
2023-05-17T06:07:38.459Z,9.719258
2023-05-17T06:08:38.332Z,9.719314
2023-05-17T06:09:38.340Z,9.719307
2023-05-17T06:10:38.313Z,9.719327
2023-05-17T06:11:38.334Z,9.719253
2023-05-17T06:12:38.322Z,9.719193
2023-05-17T06:13:38.284Z,9.719179
2023-05-17T06:14:38.278Z,9.719273
2023-05-17T06:15:38.274Z,9.719285
2023-05-17T06:16:38.288Z,9.719337
2023-05-17T06:17:38.348Z,9.719238
2023-05-17T06:18:38.369Z,9.719214
2023-05-17T06:19:38.328Z,9.719247
2023-05-17T06:20:38.245Z,9.719238
2023-05-17T06:21:38.286Z,9.719151
2023-05-17T06:22:38.200Z,9.719208
2023-05-17T06:23:38.288Z,9.719123
2023-05-17T06:24:38.291Z,9.719203
2023-05-17T06:25:38.217Z,9.719143
2023-05-17T06:26:38.163Z,9.719252
2023-05-17T06:27:39.179Z,9.719335
2023-05-17T06:28:38.142Z,9.719224
2023-05-17T06:29:38.130Z,9.719292
2023-05-17T06:30:38.134Z,9.719045
2023-05-17T06:31:38.114Z,9.719083
2023-05-17T06:32:38.189Z,9.719354
2023-05-17T06:33:38.127Z,9.719131
2023-05-17T06:34:38.078Z,9.719172
2023-05-17T06:35:51.565Z,9.719159
2023-05-17T06:36:39.073Z,9.719231
2023-05-17T06:37:38.081Z,9.719113
2023-05-17T06:38:38.078Z,9.718893
2023-05-17T06:39:38.173Z,9.719148
2023-05-17T06:40:38.056Z,9.719098
2023-05-17T06:41:38.038Z,9.719182
2023-05-17T06:42:38.013Z,9.718954
2023-05-17T06:43:38.026Z,9.718700
2023-05-17T06:44:38.022Z,9.719202
2023-05-17T06:45:37.990Z,9.719053
2023-05-17T06:46:37.976Z,9.718925
2023-05-17T06:47:38.053Z,9.718831
2023-05-17T06:48:38.052Z,9.718958
2023-05-17T06:49:37.956Z,9.719130
2023-05-17T06:50:38.007Z,9.719310
2023-05-17T06:51:37.915Z,9.719127
2023-05-17T06:52:37.926Z,9.718965
2023-05-17T06:53:37.891Z,9.719107
2023-05-17T06:54:37.892Z,9.719158
2023-05-17T06:55:37.863Z,9.719251
2023-05-17T06:56:37.865Z,9.718917
2023-05-17T06:57:37.905Z,9.719106
2023-05-17T06:58:37.853Z,9.719109
2023-05-17T06:59:38.446Z,9.719041
2023-05-17T07:00:37.837Z,9.719026
2023-05-17T07:01:37.988Z,9.718944
2023-05-17T07:02:37.963Z,9.719111
2023-05-17T07:03:37.865Z,9.718957
2023-05-17T07:04:37.812Z,9.718939
2023-05-17T07:05:37.810Z,9.718986
2023-05-17T07:06:37.804Z,9.719012
2023-05-17T07:07:37.760Z,9.719183
2023-05-17T07:08:37.730Z,9.719167
2023-05-17T07:09:38.756Z,9.719238
2023-05-17T07:10:37.739Z,9.719051
2023-05-17T07:11:37.837Z,9.719105
2023-05-17T07:12:37.741Z,9.719187
2023-05-17T07:13:37.740Z,9.719233
2023-05-17T07:14:37.706Z,9.719011
2023-05-17T07:15:37.720Z,9.719203
2023-05-17T07:16:37.665Z,9.719124
2023-05-17T07:17:37.760Z,9.719009
2023-05-17T07:18:37.718Z,9.719068
2023-05-17T07:19:37.767Z,9.719031
2023-05-17T07:20:37.649Z,9.719046
2023-05-17T07:21:37.670Z,9.719116
2023-05-17T07:22:37.621Z,9.719257
2023-05-17T07:23:37.594Z,9.719118
2023-05-17T07:24:37.633Z,9.719092
2023-05-17T07:25:37.590Z,9.719246
2023-05-17T07:26:37.582Z,9.719298
2023-05-17T07:27:37.707Z,9.719187
2023-05-17T07:28:37.600Z,9.719271
2023-05-17T07:29:37.659Z,9.719139
2023-05-17T07:30:37.664Z,9.719148
2023-05-17T07:31:37.506Z,9.719146
2023-05-17T07:32:37.676Z,9.719278
2023-05-17T07:33:37.621Z,9.719334
2023-05-17T07:34:37.708Z,9.719280
2023-05-17T07:35:37.706Z,9.719288
2023-05-17T07:36:37.503Z,9.719209
2023-05-17T07:37:37.450Z,9.719242
2023-05-17T07:38:37.439Z,9.719275
2023-05-17T07:39:37.444Z,9.719268
2023-05-17T07:40:37.486Z,9.719341
2023-05-17T07:41:37.421Z,9.719296
2023-05-17T07:42:37.426Z,9.719236
2023-05-17T07:43:37.492Z,9.719275
2023-05-17T07:44:37.403Z,9.719376
2023-05-17T07:45:37.388Z,9.719364
2023-05-17T07:46:38.420Z,9.719258
2023-05-17T07:47:37.421Z,9.719259
2023-05-17T07:48:37.476Z,9.719439
2023-05-17T07:49:37.362Z,9.719403
2023-05-17T07:50:37.373Z,9.719379
2023-05-17T07:51:37.382Z,9.719405
2023-05-17T07:52:37.347Z,9.719376
2023-05-17T07:53:37.304Z,9.719337
2023-05-17T07:54:37.312Z,9.719342
2023-05-17T07:55:37.328Z,9.719349
2023-05-17T07:56:37.319Z,9.719524
2023-05-17T07:57:37.278Z,9.719363
2023-05-17T07:58:37.316Z,9.719484
2023-05-17T07:59:37.249Z,9.719406
2023-05-17T08:00:37.450Z,9.719365
2023-05-17T08:01:37.232Z,9.719281
2023-05-17T08:02:37.259Z,9.719615
2023-05-17T08:03:37.224Z,9.719750
2023-05-17T08:04:37.248Z,9.720185
2023-05-17T08:05:37.265Z,9.720171
2023-05-17T08:06:37.168Z,9.719565
2023-05-17T08:07:37.188Z,9.719641
2023-05-17T08:08:37.155Z,9.719653
2023-05-17T08:09:37.157Z,9.719816
2023-05-17T08:10:37.283Z,9.719917
2023-05-17T08:11:37.982Z,9.719828
2023-05-17T08:12:37.125Z,9.719645
2023-05-17T08:13:37.506Z,9.719408
2023-05-17T08:14:37.100Z,9.719334
2023-05-17T08:15:37.154Z,9.719165
2023-05-17T08:16:37.080Z,9.719337
2023-05-17T08:17:37.127Z,9.719337
2023-05-17T08:18:37.199Z,9.719265
2023-05-17T08:19:37.263Z,9.719200
2023-05-17T08:20:37.034Z,9.719168
2023-05-17T08:21:37.035Z,9.719350
2023-05-17T08:22:37.033Z,9.719478
2023-05-17T08:23:37.012Z,9.719487
2023-05-17T08:24:37.037Z,9.719434
2023-05-17T08:25:37.024Z,9.719450
2023-05-17T08:26:37.009Z,9.719299
2023-05-17T08:27:36.972Z,9.719330
2023-05-17T08:28:37.031Z,9.719217
2023-05-17T08:29:38.894Z,9.719292
2023-05-17T08:30:36.945Z,9.719230
2023-05-17T08:31:36.946Z,9.719284
2023-05-17T08:32:36.994Z,9.719372
2023-05-17T08:33:36.988Z,9.719432
2023-05-17T08:34:37.902Z,9.719386
2023-05-17T08:35:36.909Z,9.719400
2023-05-17T08:36:36.958Z,9.719354
2023-05-17T08:37:36.896Z,9.719373
2023-05-17T08:38:36.870Z,9.719365
2023-05-17T08:39:36.920Z,9.719383
2023-05-17T08:40:36.868Z,9.719338
2023-05-17T08:41:36.877Z,9.719367
2023-05-17T08:42:36.814Z,9.719375
2023-05-17T08:43:36.808Z,9.719328
2023-05-17T08:44:36.831Z,9.719346
2023-05-17T08:45:36.783Z,9.719357
2023-05-17T08:46:36.789Z,9.719351
2023-05-17T08:47:36.921Z,9.719372
2023-05-17T08:48:36.894Z,9.719369
2023-05-17T08:49:37.381Z,9.719349
2023-05-17T08:50:36.738Z,9.719357
2023-05-17T08:51:36.757Z,9.719344
2023-05-17T08:52:36.730Z,9.719367
2023-05-17T08:53:36.718Z,9.719352
2023-05-17T08:54:36.717Z,9.719320
2023-05-17T08:55:36.741Z,9.719391
2023-05-17T08:56:36.670Z,9.719410
2023-05-17T08:57:36.690Z,9.719446
2023-05-17T08:58:48.087Z,9.719390
2023-05-17T08:59:37.667Z,9.719400
2023-05-17T09:00:36.644Z,9.719316
2023-05-17T09:01:36.661Z,9.719316
2023-05-17T09:02:36.688Z,9.719325
2023-05-17T09:03:36.693Z,9.719357
2023-05-17T09:04:36.622Z,9.719231
2023-05-17T09:05:36.634Z,9.719284
2023-05-17T09:06:36.595Z,9.719275
2023-05-17T09:07:36.604Z,9.719380
2023-05-17T09:08:36.563Z,9.719396
2023-05-17T09:09:36.551Z,9.719507
2023-05-17T09:10:36.537Z,9.719313
2023-05-17T09:11:36.557Z,9.719254
2023-05-17T09:12:36.537Z,9.719138
2023-05-17T09:13:36.520Z,9.719201
2023-05-17T09:14:36.499Z,9.719313
2023-05-17T09:15:36.493Z,9.719375
2023-05-17T09:16:36.497Z,9.719244
2023-05-17T09:17:36.539Z,9.719234
2023-05-17T09:18:36.576Z,9.719101
2023-05-17T09:19:36.607Z,9.719199
2023-05-17T09:20:36.453Z,9.719238
2023-05-17T09:21:36.450Z,9.719115
2023-05-17T09:22:36.437Z,9.719218
2023-05-17T09:23:36.409Z,9.719237
2023-05-17T09:24:36.445Z,9.719128
2023-05-17T09:25:36.395Z,9.719013
2023-05-17T09:26:36.389Z,9.719174
2023-05-17T09:27:36.384Z,9.719298
2023-05-17T09:28:36.351Z,9.719265
2023-05-17T09:29:36.355Z,9.719137
2023-05-17T09:30:36.336Z,9.719167
2023-05-17T09:31:36.349Z,9.719181
2023-05-17T09:32:36.363Z,9.719316
2023-05-17T09:33:36.344Z,9.719280
2023-05-17T09:34:36.326Z,9.719258
2023-05-17T09:35:36.304Z,9.719232
2023-05-17T09:36:36.278Z,9.719257
2023-05-17T09:37:36.261Z,9.719177
2023-05-17T09:38:36.306Z,9.719097
2023-05-17T09:39:36.271Z,9.719222
2023-05-17T09:40:36.256Z,9.719273
2023-05-17T09:41:36.235Z,9.719277
2023-05-17T09:42:36.219Z,9.719223
2023-05-17T09:43:36.223Z,9.719188
2023-05-17T09:44:36.201Z,9.719288
2023-05-17T09:45:36.224Z,9.719188
2023-05-17T09:46:36.185Z,9.719091
2023-05-17T09:47:36.223Z,9.719110
2023-05-17T09:48:36.202Z,9.719002
2023-05-17T09:49:36.178Z,9.719234
2023-05-17T09:50:36.151Z,9.719244
2023-05-17T09:51:36.150Z,9.719192
2023-05-17T09:52:36.131Z,9.719239
2023-05-17T09:53:36.124Z,9.719170
2023-05-17T09:54:36.115Z,9.719210
2023-05-17T09:55:36.757Z,9.719267
2023-05-17T09:56:36.129Z,9.719322
2023-05-17T09:57:36.088Z,9.719355
2023-05-17T09:58:36.077Z,9.719370
2023-05-17T09:59:36.068Z,9.719357
2023-05-17T10:00:36.049Z,9.719301
2023-05-17T10:01:36.026Z,9.719261
2023-05-17T10:02:36.226Z,9.719293
2023-05-17T10:03:36.085Z,9.719314
2023-05-17T10:04:36.043Z,9.719300
2023-05-17T10:05:36.119Z,9.719438
2023-05-17T10:06:45.216Z,9.719410
2023-05-17T10:07:37.007Z,9.719465
2023-05-17T10:08:35.955Z,9.719354
2023-05-17T10:09:36.030Z,9.719333
2023-05-17T10:10:35.949Z,9.719441
2023-05-17T10:11:35.944Z,9.719424
2023-05-17T10:12:35.932Z,9.719483
2023-05-17T10:13:35.946Z,9.719352
2023-05-17T10:14:35.930Z,9.719410
2023-05-17T10:15:35.965Z,9.719401
2023-05-17T10:16:35.880Z,9.719339
2023-05-17T10:17:36.008Z,9.719369
2023-05-17T10:18:35.969Z,9.719431
2023-05-17T10:19:35.930Z,9.719407
2023-05-17T10:20:35.877Z,9.719418
2023-05-17T10:21:35.840Z,9.719387
2023-05-17T10:22:35.855Z,9.719510
2023-05-17T10:23:35.844Z,9.719445
2023-05-17T10:24:35.819Z,9.719431
2023-05-17T10:25:35.813Z,9.719460
2023-05-17T10:26:35.813Z,9.719496
2023-05-17T10:27:35.810Z,9.719440
2023-05-17T10:28:35.779Z,9.719672
2023-05-17T10:29:35.788Z,9.719701
2023-05-17T10:30:35.823Z,9.719681
2023-05-17T10:31:35.745Z,9.719703
2023-05-17T10:32:35.797Z,9.719802
2023-05-17T10:33:35.820Z,9.719840
2023-05-17T10:34:35.707Z,9.719496
2023-05-17T10:35:35.733Z,9.719236
2023-05-17T10:36:35.740Z,9.719230
2023-05-17T10:37:35.691Z,9.719228
2023-05-17T10:38:42.568Z,9.719164
2023-05-17T10:39:36.689Z,9.719386
2023-05-17T10:40:35.669Z,9.719513
2023-05-17T10:41:35.644Z,9.719372
2023-05-17T10:42:35.649Z,9.719398
2023-05-17T10:43:35.643Z,9.719447
2023-05-17T10:44:35.644Z,9.719262
2023-05-17T10:45:35.617Z,9.719266
2023-05-17T10:46:35.611Z,9.719146
2023-05-17T10:47:35.702Z,9.719197
2023-05-17T10:49:07.569Z,9.719197
2023-05-17T10:49:35.607Z,9.719197
2023-05-17T10:50:35.592Z,9.719131
2023-05-17T10:51:35.568Z,9.719131
2023-05-17T10:52:35.572Z,9.719131
2023-05-17T10:53:35.534Z,9.719131
2023-05-17T10:54:35.538Z,9.719244
2023-05-17T10:55:35.603Z,9.719261
2023-05-17T10:56:35.537Z,9.719281
2023-05-17T10:57:49.736Z,9.719303
2023-05-17T10:58:36.495Z,9.719209
2023-05-17T10:59:35.474Z,9.719121
2023-05-17T11:00:35.461Z,9.719176
2023-05-17T11:01:35.471Z,9.719184
2023-05-17T11:02:35.540Z,9.719013
2023-05-17T11:03:35.424Z,9.719226
2023-05-17T11:04:35.501Z,9.719190
2023-05-17T11:05:35.494Z,9.719277
2023-05-17T11:06:35.435Z,9.719281
2023-05-17T11:07:35.413Z,9.719230
2023-05-17T11:08:35.392Z,9.719277
2023-05-17T11:09:35.385Z,9.719355
2023-05-17T11:10:35.404Z,9.719234
2023-05-17T11:11:35.358Z,9.719279
2023-05-17T11:12:37.319Z,9.719234
2023-05-17T11:13:35.355Z,9.719251
2023-05-17T11:14:35.326Z,9.719248
2023-05-17T11:15:35.349Z,9.719303
2023-05-17T11:16:35.302Z,9.719254
2023-05-17T11:17:35.390Z,9.719293
2023-05-17T11:18:38.993Z,9.719329
2023-05-17T11:19:36.394Z,9.719283
2023-05-17T11:20:36.020Z,9.719230
2023-05-17T11:21:35.295Z,9.719231
2023-05-17T11:22:35.255Z,9.719345
2023-05-17T11:23:35.285Z,9.719309
2023-05-17T11:24:35.248Z,9.719421
2023-05-17T11:25:35.239Z,9.719437
2023-05-17T11:26:35.223Z,9.719434
2023-05-17T11:27:35.241Z,9.719378
2023-05-17T11:28:35.228Z,9.719369
2023-05-17T11:29:35.589Z,9.719330
2023-05-17T11:30:35.204Z,9.719285
2023-05-17T11:31:35.173Z,9.719540
2023-05-17T11:32:35.275Z,9.719351
2023-05-17T11:33:35.306Z,9.719342
2023-05-17T11:34:35.268Z,9.719425
2023-05-17T11:35:35.153Z,9.719380
2023-05-17T11:36:35.141Z,9.719189
2023-05-17T11:37:35.108Z,9.718955
2023-05-17T11:38:35.118Z,9.719058
2023-05-17T11:39:35.085Z,9.719311
2023-05-17T11:40:35.064Z,9.718867
2023-05-17T11:41:35.099Z,9.719116
2023-05-17T11:42:35.111Z,9.719127
2023-05-17T11:43:35.060Z,9.719151
2023-05-17T11:44:35.123Z,9.719088